createdAt,value
2024-02-01T04:02:05.538Z,1.70
2024-02-01T04:04:36.591Z,1.50
2024-02-01T04:07:07.348Z,1.50
2024-02-01T04:09:34.516Z,1.60
2024-02-01T04:12:02.113Z,1.50
2024-02-01T04:14:31.919Z,1.50
2024-02-01T04:17:00.287Z,1.40
2024-02-01T04:19:30.425Z,1.50
2024-02-01T04:22:01.361Z,1.50
2024-02-01T04:24:34.858Z,1.50
2024-02-01T04:27:02.472Z,1.40
2024-02-01T04:29:30.877Z,1.40
2024-02-01T04:31:58.181Z,1.40
2024-02-01T04:34:26.905Z,1.40
2024-02-01T04:36:56.602Z,1.40
2024-02-01T04:39:24.008Z,1.50
2024-02-01T04:41:55.953Z,1.60
2024-02-01T04:44:24.302Z,1.60
2024-02-01T04:46:54.642Z,1.60
2024-02-01T04:49:25.343Z,1.70
2024-02-01T04:51:53.393Z,1.70
2024-02-01T04:54:23.369Z,1.80
2024-02-01T04:56:52.961Z,1.70
2024-02-01T04:59:25.888Z,1.70
2024-02-01T05:01:58.901Z,1.60
2024-02-01T05:04:30.100Z,1.70
2024-02-01T05:06:58.037Z,1.70
2024-02-01T05:09:26.957Z,1.50
2024-02-01T05:12:05.474Z,1.50
2024-02-01T05:14:37.470Z,1.50
2024-02-01T05:17:05.155Z,1.50
2024-02-01T05:19:36.767Z,1.50
2024-02-01T05:22:08.900Z,1.50
2024-02-01T05:24:43.047Z,1.50
2024-02-01T05:27:18.026Z,1.50
2024-02-01T05:29:59.276Z,1.60
2024-02-01T05:32:29.675Z,1.60
2024-02-01T05:35:04.138Z,1.70
2024-02-01T05:37:48.303Z,1.60
2024-02-01T05:40:20.605Z,1.60
2024-02-01T05:42:55.694Z,1.70
2024-02-01T05:45:37.858Z,1.70
2024-02-01T05:48:32.907Z,1.80
2024-02-01T05:54:14.220Z,1.80
2024-02-01T05:56:59.767Z,1.80
2024-02-01T05:59:36.841Z,1.80
2024-02-01T06:02:13.862Z,1.80
2024-02-01T06:04:45.184Z,1.80
2024-02-01T06:07:24.029Z,1.80
2024-02-01T06:09:57.467Z,1.80
2024-02-01T06:12:35.776Z,1.80
2024-02-01T06:15:36.912Z,1.80
2024-02-01T06:18:27.779Z,1.80
2024-02-01T06:21:12.056Z,1.80
2024-02-01T06:23:47.964Z,1.80
2024-02-01T06:26:43.001Z,1.90
2024-02-01T06:29:48.249Z,1.90
2024-02-01T06:32:24.241Z,1.80
2024-02-01T06:35:23.881Z,1.80
2024-02-01T06:38:29.665Z,1.80
2024-02-01T06:44:38.099Z,1.80
2024-02-01T06:47:42.983Z,1.70
2024-02-01T06:50:57.261Z,1.70
2024-02-01T06:53:38.624Z,1.70
2024-02-01T06:56:38.779Z,1.70
2024-02-01T06:59:35.135Z,1.80
2024-02-01T07:02:33.343Z,1.80
2024-02-01T07:05:13.753Z,1.80
2024-02-01T07:07:54.729Z,1.90
2024-02-01T07:10:53.448Z,2.00
2024-02-01T07:13:51.649Z,2.00
2024-02-01T07:16:58.348Z,2.00
2024-02-01T07:19:56.545Z,2.00
2024-02-01T07:22:36.921Z,2.20
2024-02-01T07:25:26.816Z,2.10
2024-02-01T07:28:22.989Z,2.10
2024-02-01T07:34:34.270Z,2.10
2024-02-01T07:37:30.907Z,2.20
2024-02-01T07:40:22.484Z,2.30
2024-02-01T07:43:14.067Z,2.30
2024-02-01T07:46:08.802Z,2.30
2024-02-01T07:48:59.710Z,2.40
2024-02-01T07:51:56.851Z,2.40
2024-02-01T07:54:50.552Z,2.60
2024-02-01T07:58:03.863Z,2.60
2024-02-01T08:00:51.543Z,2.70
2024-02-01T08:03:55.837Z,2.70
2024-02-01T08:06:59.491Z,2.70
2024-02-01T08:09:43.472Z,2.60
2024-02-01T08:12:22.657Z,2.60
2024-02-01T08:15:08.350Z,2.60
2024-02-01T08:17:56.886Z,2.70
2024-02-01T08:20:37.980Z,2.70
2024-02-01T08:23:10.730Z,2.80
2024-02-01T08:25:48.306Z,2.90
2024-02-01T08:28:42.710Z,2.90
2024-02-01T08:31:20.841Z,3.00
2024-02-01T08:34:15.176Z,3.10
2024-02-01T08:36:53.309Z,3.10
2024-02-01T08:43:51.635Z,3.30
2024-02-01T08:46:35.829Z,3.30
2024-02-01T08:49:12.828Z,3.40
2024-02-01T08:52:11.702Z,3.40
2024-02-01T08:55:00.649Z,3.50
2024-02-01T08:57:46.431Z,3.60
2024-02-01T09:00:32.738Z,3.70
2024-02-01T09:03:28.319Z,3.80
2024-02-01T09:06:18.774Z,3.90
2024-02-01T09:09:07.303Z,4.00
2024-02-01T09:11:55.451Z,4.00
2024-02-01T09:14:43.223Z,4.10
2024-02-01T09:20:45.106Z,4.10
2024-02-01T09:23:30.709Z,4.20
2024-02-01T09:26:10.379Z,4.30
2024-02-01T09:28:43.173Z,4.40
2024-02-01T09:31:40.182Z,4.50
2024-02-01T09:34:28.152Z,4.50
2024-02-01T09:37:39.932Z,4.50
2024-02-01T09:40:34.608Z,4.60
2024-02-01T09:43:35.592Z,4.60
2024-02-01T09:46:36.418Z,4.70
2024-02-01T09:49:28.331Z,4.80
2024-02-01T09:52:29.006Z,4.80
2024-02-01T09:55:04.512Z,4.90
2024-02-01T09:58:09.206Z,5.00
2024-02-01T10:00:54.080Z,5.00
2024-02-01T10:04:04.679Z,5.10
2024-02-01T10:07:00.912Z,5.20
2024-02-01T10:09:58.237Z,5.20
2024-02-01T10:12:43.549Z,5.30
2024-02-01T10:15:30.711Z,5.50
2024-02-01T10:18:27.231Z,5.60
2024-02-01T10:22:34.217Z,5.80
2024-02-01T10:25:43.373Z,5.90
2024-02-01T10:28:37.692Z,5.90
2024-02-01T10:31:20.694Z,5.90
2024-02-01T10:34:12.754Z,5.90
2024-02-01T10:40:05.652Z,6.00
2024-02-01T10:43:08.088Z,6.00
2024-02-01T10:46:27.450Z,6.10
2024-02-01T10:49:30.689Z,6.20
2024-02-01T10:56:26.960Z,6.40
2024-02-01T11:04:16.666Z,6.70
2024-02-01T11:11:48.883Z,6.80
2024-02-01T11:14:57.595Z,7.00
2024-02-01T11:17:41.595Z,7.10
2024-02-01T11:20:28.487Z,7.00
2024-02-01T11:23:10.181Z,7.00
2024-02-01T11:28:49.937Z,7.00
2024-02-01T11:31:30.559Z,7.00
2024-02-01T11:35:20.854Z,7.00
2024-02-01T11:38:08.872Z,6.90
2024-02-01T11:40:50.054Z,6.90
2024-02-01T11:43:28.444Z,6.90
2024-02-01T11:46:14.948Z,7.00
2024-02-01T11:49:06.902Z,7.10
2024-02-01T11:52:14.830Z,7.20
2024-02-01T11:54:55.926Z,7.30
2024-02-01T11:58:07.633Z,7.40
2024-02-01T12:01:21.249Z,7.50
2024-02-01T12:03:59.752Z,7.60
2024-02-01T12:07:22.247Z,7.60
2024-02-01T12:10:20.020Z,7.70
2024-02-01T12:13:05.415Z,7.80
2024-02-01T12:15:57.815Z,7.80
2024-02-01T12:21:48.396Z,8.00
2024-02-01T12:24:35.058Z,8.10
2024-02-01T12:27:31.515Z,8.20
2024-02-01T12:30:13.529Z,8.20
2024-02-01T12:32:50.903Z,8.10
2024-02-01T12:35:27.956Z,7.90
2024-02-01T12:38:06.343Z,8.00
2024-02-01T12:41:03.781Z,8.10
2024-02-01T12:43:47.321Z,8.20
2024-02-01T12:58:09.138Z,8.80
2024-02-01T13:00:40.837Z,9.20
2024-02-01T13:03:09.341Z,9.50
2024-02-01T13:05:36.620Z,9.90
2024-02-01T13:08:05.906Z,10.20
2024-02-01T13:10:40.492Z,10.60
2024-02-01T13:13:13.507Z,11.70
2024-02-01T13:15:47.473Z,13.40
2024-02-01T13:18:15.780Z,14.30
2024-02-01T13:20:46.588Z,14.00
2024-02-01T13:23:14.464Z,14.00
2024-02-01T13:25:43.377Z,14.40
2024-02-01T13:30:40.785Z,16.00
2024-02-01T13:33:08.739Z,17.10
2024-02-01T13:35:39.589Z,17.20
2024-02-01T13:38:12.480Z,17.30
2024-02-01T13:40:44.967Z,17.30
2024-02-01T13:43:16.279Z,17.10
2024-02-01T13:45:44.470Z,17.00
2024-02-01T13:48:14.474Z,18.20
2024-02-01T13:50:43.517Z,19.10
2024-02-01T13:53:10.820Z,19.30
2024-02-01T13:55:38.290Z,18.50
2024-02-01T13:58:07.760Z,17.60
2024-02-01T14:00:40.118Z,17.10
2024-02-01T14:03:11.780Z,16.50
2024-02-01T14:05:39.694Z,15.30
2024-02-01T14:08:10.202Z,14.70
2024-02-01T14:10:39.035Z,14.30
2024-02-01T14:13:08.464Z,13.40
2024-02-01T14:15:41.467Z,13.10
2024-02-01T14:18:12.814Z,13.00
2024-02-01T14:20:43.897Z,13.00
2024-02-01T14:23:14.760Z,12.90
2024-02-01T14:25:42.676Z,12.70
2024-02-01T14:28:10.294Z,12.60
2024-02-01T14:30:40.456Z,12.60
2024-02-01T14:33:09.851Z,12.80
2024-02-01T14:35:37.929Z,13.00
2024-02-01T14:38:08.800Z,13.20
2024-02-01T14:40:36.063Z,13.00
2024-02-01T14:43:08.646Z,13.00
2024-02-01T14:45:36.943Z,12.70
2024-02-01T14:48:07.596Z,12.70
2024-02-01T14:50:35.575Z,12.40
2024-02-01T14:53:07.412Z,12.20
2024-02-01T14:55:35.533Z,12.10
2024-02-01T14:58:07.985Z,12.00
2024-02-01T15:00:36.613Z,12.00
2024-02-01T15:03:07.296Z,11.70
2024-02-01T15:05:34.787Z,11.30
2024-02-01T15:08:03.259Z,10.80
2024-02-01T15:10:30.439Z,10.60
2024-02-01T15:12:59.554Z,10.50
2024-02-01T15:15:27.079Z,10.30
2024-02-01T15:17:54.497Z,10.20
2024-02-01T15:20:35.029Z,10.00
2024-02-01T15:23:03.677Z,10.00
2024-02-01T15:25:32.310Z,9.80
2024-02-01T15:28:00.654Z,9.70
2024-02-01T15:30:27.924Z,9.60
2024-02-01T15:32:55.219Z,9.50
2024-02-01T15:35:22.974Z,9.50
2024-02-01T15:37:50.578Z,9.40
2024-02-01T15:40:18.812Z,9.30
2024-02-01T15:42:46.603Z,9.30
2024-02-01T15:45:13.884Z,9.30
2024-02-01T15:47:47.675Z,9.20
2024-02-01T15:50:24.595Z,9.10
2024-02-01T15:52:54.038Z,9.00
2024-02-01T15:55:23.178Z,8.90
2024-02-01T15:57:51.949Z,8.80
2024-02-01T16:00:19.558Z,8.80
2024-02-01T16:02:46.857Z,8.70
2024-02-01T16:05:16.061Z,8.70
2024-02-01T16:07:43.271Z,8.60
2024-02-01T16:10:15.500Z,8.60
2024-02-01T16:12:44.040Z,8.60
2024-02-01T16:15:18.634Z,8.60
2024-02-01T16:17:46.993Z,8.50
2024-02-01T16:20:51.575Z,8.50
2024-02-01T16:23:23.279Z,8.40
2024-02-01T16:25:51.705Z,8.50
2024-02-01T16:28:34.426Z,8.30
2024-02-01T16:31:09.896Z,8.30
2024-02-01T16:34:01.093Z,8.40
2024-02-01T16:36:50.008Z,8.40
2024-02-01T16:39:29.827Z,8.40
2024-02-01T16:41:59.415Z,8.40
2024-02-01T16:44:45.813Z,8.40
2024-02-01T16:47:35.175Z,8.40
2024-02-01T16:50:09.990Z,8.40
2024-02-01T16:52:55.774Z,8.40
2024-02-01T16:55:44.097Z,8.50
2024-02-01T16:58:33.981Z,8.50
2024-02-01T17:01:04.219Z,8.50
2024-02-01T17:03:33.862Z,8.40
2024-02-01T17:06:06.884Z,8.40
2024-02-01T17:08:51.399Z,8.40
2024-02-01T17:11:34.004Z,8.40
2024-02-01T17:14:30.640Z,8.40
2024-02-01T17:17:03.235Z,8.30
2024-02-01T17:19:33.676Z,8.30
2024-02-01T17:22:06.128Z,8.20
2024-02-01T17:24:34.784Z,8.20
2024-02-01T17:27:06.104Z,8.20
2024-02-01T17:29:39.863Z,8.20
2024-02-01T17:32:34.209Z,8.30
2024-02-01T17:35:03.059Z,8.30
2024-02-01T17:37:42.350Z,8.30
2024-02-01T17:40:17.164Z,8.30
2024-02-01T17:42:51.275Z,8.30
2024-02-01T17:45:19.379Z,8.30
2024-02-01T17:47:52.641Z,8.30
2024-02-01T17:50:33.367Z,8.20
2024-02-01T17:53:05.362Z,8.30
2024-02-01T17:55:44.721Z,8.30
2024-02-01T17:58:30.501Z,8.30
2024-02-01T18:00:59.597Z,8.30
2024-02-01T18:03:27.206Z,8.30
2024-02-01T18:05:54.651Z,8.30
2024-02-01T18:08:24.463Z,8.30
2024-02-01T18:10:51.650Z,8.20
2024-02-01T18:13:19.591Z,8.20
2024-02-01T18:15:56.734Z,8.20
2024-02-01T18:18:30.672Z,8.20
2024-02-01T18:21:01.352Z,8.10
2024-02-01T18:23:37.988Z,8.00
2024-02-01T18:26:09.661Z,8.10
2024-02-01T18:28:40.807Z,8.10
2024-02-01T18:31:15.633Z,8.00
2024-02-01T18:33:45.768Z,8.00
2024-02-01T18:36:19.568Z,8.00
2024-02-01T18:38:47.012Z,8.00
2024-02-01T18:41:23.807Z,8.00
2024-02-01T18:43:56.730Z,7.90
2024-02-01T18:46:53.546Z,7.90
2024-02-01T18:49:25.607Z,7.90
2024-02-01T18:51:54.493Z,7.90
2024-02-01T18:54:35.025Z,8.00
2024-02-01T18:57:04.129Z,8.00
2024-02-01T18:59:31.424Z,8.00
2024-02-01T19:02:03.819Z,8.00
2024-02-01T19:04:32.046Z,8.10
2024-02-01T19:07:00.406Z,8.10
2024-02-01T19:09:34.621Z,8.10
2024-02-01T19:12:02.432Z,8.10
2024-02-01T19:14:37.729Z,8.10
2024-02-01T19:17:22.311Z,8.10
2024-02-01T19:19:49.961Z,8.00
2024-02-01T19:22:38.719Z,7.90
2024-02-01T19:25:07.176Z,7.90
2024-02-01T19:27:40.983Z,7.90
2024-02-01T19:30:17.472Z,7.80
2024-02-01T19:32:47.190Z,7.90
2024-02-01T19:35:38.643Z,7.90
2024-02-01T19:38:18.127Z,7.80
2024-02-01T19:40:48.535Z,7.80
2024-02-01T19:43:15.725Z,7.90
2024-02-01T19:45:44.409Z,7.80
2024-02-01T19:48:14.629Z,7.80
2024-02-01T19:50:42.644Z,7.80
2024-02-01T19:53:10.699Z,7.80
2024-02-01T19:55:37.893Z,7.80
2024-02-01T19:58:05.144Z,7.80
2024-02-01T20:00:32.604Z,7.90
2024-02-01T20:02:59.862Z,7.90
2024-02-01T20:05:27.249Z,7.80
2024-02-01T20:07:54.448Z,7.80
2024-02-01T20:10:22.054Z,7.80
2024-02-01T20:12:49.414Z,7.80
2024-02-01T20:15:17.089Z,7.70
2024-02-01T20:17:45.283Z,7.70
2024-02-01T20:20:22.672Z,7.70
2024-02-01T20:22:50.896Z,7.70
2024-02-01T20:26:04.298Z,7.70
2024-02-01T20:29:27.990Z,7.70
2024-02-01T20:32:19.029Z,7.70
2024-02-01T20:34:47.243Z,7.70
2024-02-01T20:37:18.772Z,7.70
2024-02-01T20:39:47.261Z,7.80
2024-02-01T20:42:21.503Z,7.70
2024-02-01T20:44:53.664Z,7.50
2024-02-01T20:47:34.317Z,7.50
2024-02-01T20:50:08.164Z,7.40
2024-02-01T20:52:36.765Z,7.30
2024-02-01T20:55:12.711Z,7.10
2024-02-01T20:57:48.929Z,7.10
2024-02-01T21:00:21.284Z,7.00
2024-02-01T21:03:09.236Z,6.90
2024-02-01T21:05:53.631Z,6.90
2024-02-01T21:08:34.029Z,7.00
2024-02-01T21:11:02.445Z,7.00
2024-02-01T21:13:33.535Z,7.00
2024-02-01T21:16:00.814Z,7.00
2024-02-01T21:18:37.705Z,6.90
2024-02-01T21:21:06.526Z,6.90
2024-02-01T21:23:38.708Z,6.90
2024-02-01T21:26:20.777Z,7.00
2024-02-01T21:29:13.803Z,7.00
2024-02-01T21:31:48.786Z,7.00
2024-02-01T21:34:19.629Z,7.00
2024-02-01T21:36:57.528Z,7.00
2024-02-01T21:39:47.857Z,7.00
2024-02-01T21:42:53.352Z,7.10
2024-02-01T21:45:23.308Z,7.00
2024-02-01T21:47:52.094Z,6.80
2024-02-01T21:50:19.791Z,6.70
2024-02-01T21:52:47.333Z,6.60
2024-02-01T21:55:14.718Z,6.60
2024-02-01T21:57:42.517Z,6.70
2024-02-01T22:00:13.576Z,6.70
2024-02-01T22:02:42.769Z,6.60
2024-02-01T22:05:10.678Z,6.60
2024-02-01T22:07:38.274Z,6.50
2024-02-01T22:10:08.086Z,6.60
2024-02-01T22:12:35.249Z,6.50
2024-02-01T22:15:03.901Z,6.50
2024-02-01T22:17:31.708Z,6.60
2024-02-01T22:19:59.818Z,6.60
2024-02-01T22:22:27.358Z,6.60
2024-02-01T22:24:54.543Z,6.50
2024-02-01T22:27:21.924Z,6.60
2024-02-01T22:29:49.131Z,6.60
2024-02-01T22:32:16.804Z,6.70
2024-02-01T22:34:44.453Z,6.70
2024-02-01T22:37:12.884Z,6.80
2024-02-01T22:39:40.044Z,6.60
2024-02-01T22:42:10.448Z,6.60
2024-02-01T22:44:37.849Z,6.60
2024-02-01T22:47:05.442Z,6.60
2024-02-01T22:49:33.073Z,6.60
2024-02-01T22:52:00.608Z,6.50
2024-02-01T22:54:28.396Z,6.60
2024-02-01T22:56:55.673Z,6.60
2024-02-01T22:59:23.320Z,6.60
2024-02-01T23:01:50.674Z,6.60
2024-02-01T23:04:19.213Z,6.50
2024-02-01T23:06:48.072Z,6.50
2024-02-01T23:09:15.361Z,6.50
2024-02-01T23:11:43.122Z,6.40
2024-02-01T23:14:10.366Z,6.40
2024-02-01T23:16:41.305Z,6.20
2024-02-01T23:19:08.605Z,6.20
2024-02-01T23:21:36.464Z,6.10
2024-02-01T23:24:04.409Z,6.00
2024-02-01T23:26:31.956Z,6.10
2024-02-01T23:28:59.272Z,6.00
2024-02-01T23:31:28.079Z,6.00
2024-02-01T23:33:55.415Z,6.00
2024-02-01T23:36:22.706Z,5.90
2024-02-01T23:38:50.307Z,5.90
2024-02-01T23:41:17.930Z,5.70
2024-02-01T23:43:45.443Z,5.70
2024-02-01T23:46:12.654Z,5.80
2024-02-01T23:48:40.050Z,5.90
2024-02-01T23:51:07.783Z,5.90
2024-02-01T23:53:34.967Z,5.80
2024-02-01T23:56:03.348Z,5.70
2024-02-01T23:58:30.726Z,5.80
